sensor_id;sensor_type;location;lat;lon;timestamp;temperature;humidity
70170;DHT22;57543;45.442;9.212;2022-11-14T00:01:33;14.76;72.07
70170;DHT22;57543;45.442;9.212;2022-11-14T00:04:55;14.66;72.29
70170;DHT22;57543;45.442;9.212;2022-11-14T00:08:22;14.62;72.62
70170;DHT22;57543;45.442;9.212;2022-11-14T00:11:46;14.70;72.52
70170;DHT22;57543;45.442;9.212;2022-11-14T00:15:09;14.69;72.54
70170;DHT22;57543;45.442;9.212;2022-11-14T00:18:32;14.55;72.64
70170;DHT22;57543;45.442;9.212;2022-11-14T00:21:54;14.59;72.83
70170;DHT22;57543;45.442;9.212;2022-11-14T00:25:16;14.52;72.38
70170;DHT22;57543;45.442;9.212;2022-11-14T00:28:39;14.31;71.80
70170;DHT22;57543;45.442;9.212;2022-11-14T00:32:01;14.17;72.63
70170;DHT22;57543;45.442;9.212;2022-11-14T00:35:23;13.96;73.03
70170;DHT22;57543;45.442;9.212;2022-11-14T00:38:45;13.84;73.53
70170;DHT22;57543;45.442;9.212;2022-11-14T00:42:07;13.72;74.06
70170;DHT22;57543;45.442;9.212;2022-11-14T00:45:30;13.76;74.02
70170;DHT22;57543;45.442;9.212;2022-11-14T00:48:52;13.74;74.08
70170;DHT22;57543;45.442;9.212;2022-11-14T00:52:14;13.66;74.71
70170;DHT22;57543;45.442;9.212;2022-11-14T00:55:37;13.67;74.55
70170;DHT22;57543;45.442;9.212;2022-11-14T00:58:59;13.63;75.00
70170;DHT22;57543;45.442;9.212;2022-11-14T01:02:22;13.61;74.77
70170;DHT22;57543;45.442;9.212;2022-11-14T01:05:46;13.51;75.25
70170;DHT22;57543;45.442;9.212;2022-11-14T01:09:09;13.35;75.84
70170;DHT22;57543;45.442;9.212;2022-11-14T01:12:32;13.51;75.65
70170;DHT22;57543;45.442;9.212;2022-11-14T01:15:59;13.25;76.38
70170;DHT22;57543;45.442;9.212;2022-11-14T01:19:22;13.29;76.38
70170;DHT22;57543;45.442;9.212;2022-11-14T01:22:44;13.29;76.40
70170;DHT22;57543;45.442;9.212;2022-11-14T01:26:09;13.53;76.21
70170;DHT22;57543;45.442;9.212;2022-11-14T01:29:32;13.58;75.85
70170;DHT22;57543;45.442;9.212;2022-11-14T01:32:54;13.62;75.88
70170;DHT22;57543;45.442;9.212;2022-11-14T01:36:18;13.61;75.94
70170;DHT22;57543;45.442;9.212;2022-11-14T01:39:40;13.45;76.20
70170;DHT22;57543;45.442;9.212;2022-11-14T01:46:44;13.44;76.77
70170;DHT22;57543;45.442;9.212;2022-11-14T01:50:08;13.46;76.62
70170;DHT22;57543;45.442;9.212;2022-11-14T01:53:31;13.45;77.07
70170;DHT22;57543;45.442;9.212;2022-11-14T01:56:59;13.41;76.34
70170;DHT22;57543;45.442;9.212;2022-11-14T02:00:25;13.42;76.72
70170;DHT22;57543;45.442;9.212;2022-11-14T02:03:49;13.39;76.98
70170;DHT22;57543;45.442;9.212;2022-11-14T02:07:13;13.49;76.83
70170;DHT22;57543;45.442;9.212;2022-11-14T02:10:36;13.48;76.50
70170;DHT22;57543;45.442;9.212;2022-11-14T02:13:58;13.51;76.39
70170;DHT22;57543;45.442;9.212;2022-11-14T02:17:22;13.46;76.29
70170;DHT22;57543;45.442;9.212;2022-11-14T02:20:44;13.44;76.23
70170;DHT22;57543;45.442;9.212;2022-11-14T02:24:09;13.44;76.44
70170;DHT22;57543;45.442;9.212;2022-11-14T02:27:32;13.55;76.38
70170;DHT22;57543;45.442;9.212;2022-11-14T02:30:55;13.62;76.30
70170;DHT22;57543;45.442;9.212;2022-11-14T02:34:17;13.70;75.82
70170;DHT22;57543;45.442;9.212;2022-11-14T02:37:41;13.70;75.41
70170;DHT22;57543;45.442;9.212;2022-11-14T02:41:03;13.74;75.29
70170;DHT22;57543;45.442;9.212;2022-11-14T02:44:26;13.74;75.36
70170;DHT22;57543;45.442;9.212;2022-11-14T02:47:48;13.77;75.40
70170;DHT22;57543;45.442;9.212;2022-11-14T02:51:11;13.77;75.54
70170;DHT22;57543;45.442;9.212;2022-11-14T02:54:33;13.76;75.49
70170;DHT22;57543;45.442;9.212;2022-11-14T02:57:55;13.67;75.46
70170;DHT22;57543;45.442;9.212;2022-11-14T03:01:17;13.63;75.59
70170;DHT22;57543;45.442;9.212;2022-11-14T03:04:39;13.59;76.20
70170;DHT22;57543;45.442;9.212;2022-11-14T03:08:01;13.63;76.26
70170;DHT22;57543;45.442;9.212;2022-11-14T03:11:24;13.59;76.13
70170;DHT22;57543;45.442;9.212;2022-11-14T03:14:46;13.66;76.21
70170;DHT22;57543;45.442;9.212;2022-11-14T03:18:08;13.63;76.38
70170;DHT22;57543;45.442;9.212;2022-11-14T03:21:30;13.63;76.32
70170;DHT22;57543;45.442;9.212;2022-11-14T03:24:53;13.66;75.95
70170;DHT22;57543;45.442;9.212;2022-11-14T03:28:15;13.65;76.08
70170;DHT22;57543;45.442;9.212;2022-11-14T03:31:38;13.61;75.69
70170;DHT22;57543;45.442;9.212;2022-11-14T03:35:00;13.44;76.02
70170;DHT22;57543;45.442;9.212;2022-11-14T03:38:23;13.44;75.61
70170;DHT22;57543;45.442;9.212;2022-11-14T03:41:45;13.32;76.02
70170;DHT22;57543;45.442;9.212;2022-11-14T03:45:08;13.24;76.18
70170;DHT22;57543;45.442;9.212;2022-11-14T03:48:31;13.10;77.03
70170;DHT22;57543;45.442;9.212;2022-11-14T03:51:53;13.00;77.20
70170;DHT22;57543;45.442;9.212;2022-11-14T03:55:15;12.97;77.61
70170;DHT22;57543;45.442;9.212;2022-11-14T03:58:38;13.01;77.78
70170;DHT22;57543;45.442;9.212;2022-11-14T04:02:01;12.97;77.76
70170;DHT22;57543;45.442;9.212;2022-11-14T04:05:23;13.03;77.70
70170;DHT22;57543;45.442;9.212;2022-11-14T04:08:45;12.99;77.36
70170;DHT22;57543;45.442;9.212;2022-11-14T04:12:07;12.99;77.58
70170;DHT22;57543;45.442;9.212;2022-11-14T04:15:29;12.97;77.77
70170;DHT22;57543;45.442;9.212;2022-11-14T04:18:51;12.90;78.07
70170;DHT22;57543;45.442;9.212;2022-11-14T04:22:13;12.83;78.07
70170;DHT22;57543;45.442;9.212;2022-11-14T04:25:36;12.77;78.28
70170;DHT22;57543;45.442;9.212;2022-11-14T04:28:58;12.83;78.12
70170;DHT22;57543;45.442;9.212;2022-11-14T04:32:21;12.72;78.61
70170;DHT22;57543;45.442;9.212;2022-11-14T04:35:43;12.80;78.75
70170;DHT22;57543;45.442;9.212;2022-11-14T04:39:05;12.89;78.43
70170;DHT22;57543;45.442;9.212;2022-11-14T04:42:27;12.86;78.47
70170;DHT22;57543;45.442;9.212;2022-11-14T04:45:49;12.91;78.30
70170;DHT22;57543;45.442;9.212;2022-11-14T04:49:12;12.94;78.18
70170;DHT22;57543;45.442;9.212;2022-11-14T04:52:34;13.01;78.26
70170;DHT22;57543;45.442;9.212;2022-11-14T04:55:56;13.12;77.50
70170;DHT22;57543;45.442;9.212;2022-11-14T04:59:19;13.17;77.59
70170;DHT22;57543;45.442;9.212;2022-11-14T05:02:44;13.15;77.39
70170;DHT22;57543;45.442;9.212;2022-11-14T05:06:06;13.10;77.47
70170;DHT22;57543;45.442;9.212;2022-11-14T05:09:29;13.08;77.85
70170;DHT22;57543;45.442;9.212;2022-11-14T05:12:54;13.07;77.33
70170;DHT22;57543;45.442;9.212;2022-11-14T05:16:16;13.03;78.04
70170;DHT22;57543;45.442;9.212;2022-11-14T05:19:39;13.00;77.93
70170;DHT22;57543;45.442;9.212;2022-11-14T05:23:01;13.08;77.77
70170;DHT22;57543;45.442;9.212;2022-11-14T05:26:23;13.04;77.86
70170;DHT22;57543;45.442;9.212;2022-11-14T05:29:45;13.11;77.86
70170;DHT22;57543;45.442;9.212;2022-11-14T05:33:08;13.17;77.50
70170;DHT22;57543;45.442;9.212;2022-11-14T05:36:30;13.19;77.26
70170;DHT22;57543;45.442;9.212;2022-11-14T05:39:52;13.19;77.01
70170;DHT22;57543;45.442;9.212;2022-11-14T05:43:15;13.25;76.86
70170;DHT22;57543;45.442;9.212;2022-11-14T05:46:37;13.25;77.00
70170;DHT22;57543;45.442;9.212;2022-11-14T05:49:59;13.04;77.77
70170;DHT22;57543;45.442;9.212;2022-11-14T05:53:22;13.11;77.59
70170;DHT22;57543;45.442;9.212;2022-11-14T05:56:44;13.17;77.45
70170;DHT22;57543;45.442;9.212;2022-11-14T06:00:07;13.18;77.47
70170;DHT22;57543;45.442;9.212;2022-11-14T06:03:32;13.22;77.38
70170;DHT22;57543;45.442;9.212;2022-11-14T06:06:55;13.28;77.25
70170;DHT22;57543;45.442;9.212;2022-11-14T06:10:17;13.17;77.33
70170;DHT22;57543;45.442;9.212;2022-11-14T06:13:39;13.19;77.50
70170;DHT22;57543;45.442;9.212;2022-11-14T06:17:02;13.19;77.61
70170;DHT22;57543;45.442;9.212;2022-11-14T06:20:24;13.27;77.07
70170;DHT22;57543;45.442;9.212;2022-11-14T06:23:47;13.27;77.43
70170;DHT22;57543;45.442;9.212;2022-11-14T06:27:10;13.31;77.53
70170;DHT22;57543;45.442;9.212;2022-11-14T06:30:33;13.31;77.50
70170;DHT22;57543;45.442;9.212;2022-11-14T06:33:55;13.31;77.44
70170;DHT22;57543;45.442;9.212;2022-11-14T06:37:18;13.31;77.17
70170;DHT22;57543;45.442;9.212;2022-11-14T06:40:40;13.28;77.08
70170;DHT22;57543;45.442;9.212;2022-11-14T06:44:03;13.28;76.95
70170;DHT22;57543;45.442;9.212;2022-11-14T06:47:25;13.28;77.07
70170;DHT22;57543;45.442;9.212;2022-11-14T06:50:55;13.29;77.09
70170;DHT22;57543;45.442;9.212;2022-11-14T06:54:20;13.27;77.13
70170;DHT22;57543;45.442;9.212;2022-11-14T06:57:43;13.28;77.12
70170;DHT22;57543;45.442;9.212;2022-11-14T07:01:16;13.29;77.15
70170;DHT22;57543;45.442;9.212;2022-11-14T07:04:38;13.18;76.35
70170;DHT22;57543;45.442;9.212;2022-11-14T07:08:01;13.11;76.69
70170;DHT22;57543;45.442;9.212;2022-11-14T07:11:25;13.10;77.27
70170;DHT22;57543;45.442;9.212;2022-11-14T07:14:49;13.15;77.47
70170;DHT22;57543;45.442;9.212;2022-11-14T07:18:12;13.14;77.98
70170;DHT22;57543;45.442;9.212;2022-11-14T07:21:34;13.25;77.59
70170;DHT22;57543;45.442;9.212;2022-11-14T07:24:57;13.17;76.26
70170;DHT22;57543;45.442;9.212;2022-11-14T07:28:19;13.15;76.62
70170;DHT22;57543;45.442;9.212;2022-11-14T07:31:42;13.12;76.50
70170;DHT22;57543;45.442;9.212;2022-11-14T07:35:04;13.08;75.86
70170;DHT22;57543;45.442;9.212;2022-11-14T07:38:29;13.17;75.81
70170;DHT22;57543;45.442;9.212;2022-11-14T07:41:52;13.10;75.70
70170;DHT22;57543;45.442;9.212;2022-11-14T07:45:14;13.17;75.51
70170;DHT22;57543;45.442;9.212;2022-11-14T07:48:37;13.04;75.82
70170;DHT22;57543;45.442;9.212;2022-11-14T07:51:59;12.90;76.39
70170;DHT22;57543;45.442;9.212;2022-11-14T07:55:23;12.87;76.98
70170;DHT22;57543;45.442;9.212;2022-11-14T07:58:46;13.06;76.40
70170;DHT22;57543;45.442;9.212;2022-11-14T08:02:13;13.07;75.96
70170;DHT22;57543;45.442;9.212;2022-11-14T08:05:36;13.14;76.00
70170;DHT22;57543;45.442;9.212;2022-11-14T08:08:58;13.18;76.19
70170;DHT22;57543;45.442;9.212;2022-11-14T08:12:21;13.18;76.19
70170;DHT22;57543;45.442;9.212;2022-11-14T08:15:43;13.28;75.77
70170;DHT22;57543;45.442;9.212;2022-11-14T08:19:06;13.18;75.32
70170;DHT22;57543;45.442;9.212;2022-11-14T08:22:28;13.14;75.41
70170;DHT22;57543;45.442;9.212;2022-11-14T08:25:52;13.21;75.42
70170;DHT22;57543;45.442;9.212;2022-11-14T08:29:14;12.99;75.62
70170;DHT22;57543;45.442;9.212;2022-11-14T08:32:36;12.93;76.50
70170;DHT22;57543;45.442;9.212;2022-11-14T08:36:02;13.03;76.92
70170;DHT22;57543;45.442;9.212;2022-11-14T08:39:25;13.11;76.04
70170;DHT22;57543;45.442;9.212;2022-11-14T08:42:47;13.06;75.88
70170;DHT22;57543;45.442;9.212;2022-11-14T08:46:10;12.84;77.09
70170;DHT22;57543;45.442;9.212;2022-11-14T08:49:32;13.07;77.25
70170;DHT22;57543;45.442;9.212;2022-11-14T08:52:57;13.52;77.17
70170;DHT22;57543;45.442;9.212;2022-11-14T08:56:20;13.61;74.79
70170;DHT22;57543;45.442;9.212;2022-11-14T08:59:43;13.87;74.81
70170;DHT22;57543;45.442;9.212;2022-11-14T09:03:07;13.98;73.86
70170;DHT22;57543;45.442;9.212;2022-11-14T09:06:30;14.22;73.38
70170;DHT22;57543;45.442;9.212;2022-11-14T09:09:53;14.31;72.62
70170;DHT22;57543;45.442;9.212;2022-11-14T09:13:16;14.32;72.48
70170;DHT22;57543;45.442;9.212;2022-11-14T09:16:39;14.14;72.27
70170;DHT22;57543;45.442;9.212;2022-11-14T09:20:01;14.11;72.33
70170;DHT22;57543;45.442;9.212;2022-11-14T09:23:23;13.87;72.64
70170;DHT22;57543;45.442;9.212;2022-11-14T09:26:46;13.67;73.39
70170;DHT22;57543;45.442;9.212;2022-11-14T09:30:11;13.63;73.40
70170;DHT22;57543;45.442;9.212;2022-11-14T09:33:34;13.53;74.01
70170;DHT22;57543;45.442;9.212;2022-11-14T09:36:57;13.46;74.77
70170;DHT22;57543;45.442;9.212;2022-11-14T09:40:19;13.35;74.27
70170;DHT22;57543;45.442;9.212;2022-11-14T09:47:14;13.39;73.59
70170;DHT22;57543;45.442;9.212;2022-11-14T09:50:44;13.28;74.01
70170;DHT22;57543;45.442;9.212;2022-11-14T09:54:21;13.27;74.06
70170;DHT22;57543;45.442;9.212;2022-11-14T09:57:45;13.35;74.48
70170;DHT22;57543;45.442;9.212;2022-11-14T10:01:53;13.36;74.06
70170;DHT22;57543;45.442;9.212;2022-11-14T10:20:02;14.26;72.93
70170;DHT22;57543;45.442;9.212;2022-11-14T10:23:40;14.43;72.14
70170;DHT22;57543;45.442;9.212;2022-11-14T10:27:13;14.59;71.18
70170;DHT22;57543;45.442;9.212;2022-11-14T10:30:40;14.60;70.20
70170;DHT22;57543;45.442;9.212;2022-11-14T10:41:38;14.68;70.58
70170;DHT22;57543;45.442;9.212;2022-11-14T10:48:54;15.01;71.30
70170;DHT22;57543;45.442;9.212;2022-11-14T10:52:19;15.01;69.20
70170;DHT22;57543;45.442;9.212;2022-11-14T10:55:41;14.77;69.15
70170;DHT22;57543;45.442;9.212;2022-11-14T10:59:04;14.79;69.85
70170;DHT22;57543;45.442;9.212;2022-11-14T11:02:47;14.70;69.49
70170;DHT22;57543;45.442;9.212;2022-11-14T11:06:24;14.86;69.38
70170;DHT22;57543;45.442;9.212;2022-11-14T11:09:58;14.84;69.38
70170;DHT22;57543;45.442;9.212;2022-11-14T11:13:49;14.90;67.93
70170;DHT22;57543;45.442;9.212;2022-11-14T11:20:40;14.76;69.57
70170;DHT22;57543;45.442;9.212;2022-11-14T11:24:03;14.66;69.60
70170;DHT22;57543;45.442;9.212;2022-11-14T11:27:29;14.70;68.84
70170;DHT22;57543;45.442;9.212;2022-11-14T11:30:55;14.52;69.10
70170;DHT22;57543;45.442;9.212;2022-11-14T11:34:23;14.56;69.42
70170;DHT22;57543;45.442;9.212;2022-11-14T11:37:56;14.56;69.08
70170;DHT22;57543;45.442;9.212;2022-11-14T11:41:30;14.58;69.62
70170;DHT22;57543;45.442;9.212;2022-11-14T11:44:57;14.43;69.76
70170;DHT22;57543;45.442;9.212;2022-11-14T11:48:29;14.25;70.32
70170;DHT22;57543;45.442;9.212;2022-11-14T11:51:55;14.41;69.99
70170;DHT22;57543;45.442;9.212;2022-11-14T11:55:28;14.51;70.45
70170;DHT22;57543;45.442;9.212;2022-11-14T11:58:59;14.73;71.36
70170;DHT22;57543;45.442;9.212;2022-11-14T12:02:25;14.90;70.73
70170;DHT22;57543;45.442;9.212;2022-11-14T12:06:09;14.86;69.28
70170;DHT22;57543;45.442;9.212;2022-11-14T12:09:38;14.79;69.22
70170;DHT22;57543;45.442;9.212;2022-11-14T12:17:19;14.88;68.71
70170;DHT22;57543;45.442;9.212;2022-11-14T12:21:01;14.73;68.29
70170;DHT22;57543;45.442;9.212;2022-11-14T12:31:40;14.87;68.95
70170;DHT22;57543;45.442;9.212;2022-11-14T12:35:05;14.96;68.80
70170;DHT22;57543;45.442;9.212;2022-11-14T12:38:39;15.03;68.46
70170;DHT22;57543;45.442;9.212;2022-11-14T12:42:05;15.10;68.29
70170;DHT22;57543;45.442;9.212;2022-11-14T12:57:01;15.14;67.21
70170;DHT22;57543;45.442;9.212;2022-11-14T13:00:37;15.03;67.27
70170;DHT22;57543;45.442;9.212;2022-11-14T13:04:23;14.93;66.65
70170;DHT22;57543;45.442;9.212;2022-11-14T13:11:48;14.88;67.31
70170;DHT22;57543;45.442;9.212;2022-11-14T13:15:44;14.81;67.57
70170;DHT22;57543;45.442;9.212;2022-11-14T13:19:26;14.76;67.82
70170;DHT22;57543;45.442;9.212;2022-11-14T13:26:53;14.72;67.64
70170;DHT22;57543;45.442;9.212;2022-11-14T13:30:15;14.75;67.98
70170;DHT22;57543;45.442;9.212;2022-11-14T13:37:36;14.79;67.17
70170;DHT22;57543;45.442;9.212;2022-11-14T13:45:22;14.84;67.34
70170;DHT22;57543;45.442;9.212;2022-11-14T13:48:57;14.87;67.55
70170;DHT22;57543;45.442;9.212;2022-11-14T13:52:30;14.93;67.65
70170;DHT22;57543;45.442;9.212;2022-11-14T14:03:48;14.86;67.26
70170;DHT22;57543;45.442;9.212;2022-11-14T14:07:51;14.91;67.50
70170;DHT22;57543;45.442;9.212;2022-11-14T14:11:35;14.84;67.71
70170;DHT22;57543;45.442;9.212;2022-11-14T14:15:06;14.84;67.60
70170;DHT22;57543;45.442;9.212;2022-11-14T14:18:48;14.72;67.76
70170;DHT22;57543;45.442;9.212;2022-11-14T14:26:28;14.52;66.78
70170;DHT22;57543;45.442;9.212;2022-11-14T14:33:44;14.42;67.66
70170;DHT22;57543;45.442;9.212;2022-11-14T14:37:19;14.45;67.23
70170;DHT22;57543;45.442;9.212;2022-11-14T14:40:42;14.52;67.17
70170;DHT22;57543;45.442;9.212;2022-11-14T14:44:05;14.65;67.13
70170;DHT22;57543;45.442;9.212;2022-11-14T14:47:32;14.76;67.73
70170;DHT22;57543;45.442;9.212;2022-11-14T14:50:57;14.93;67.40
70170;DHT22;57543;45.442;9.212;2022-11-14T14:54:21;15.07;66.97
70170;DHT22;57543;45.442;9.212;2022-11-14T14:57:44;15.21;66.68
70170;DHT22;57543;45.442;9.212;2022-11-14T15:01:13;15.25;66.10
70170;DHT22;57543;45.442;9.212;2022-11-14T15:04:37;15.15;66.03
70170;DHT22;57543;45.442;9.212;2022-11-14T15:08:01;15.11;66.25
70170;DHT22;57543;45.442;9.212;2022-11-14T15:11:25;15.07;66.80
70170;DHT22;57543;45.442;9.212;2022-11-14T15:14:48;15.00;67.45
70170;DHT22;57543;45.442;9.212;2022-11-14T15:18:18;14.94;67.47
70170;DHT22;57543;45.442;9.212;2022-11-14T15:21:43;14.88;67.59
70170;DHT22;57543;45.442;9.212;2022-11-14T15:25:17;14.81;68.15
70170;DHT22;57543;45.442;9.212;2022-11-14T15:28:40;14.73;68.41
70170;DHT22;57543;45.442;9.212;2022-11-14T15:32:03;14.69;67.88
70170;DHT22;57543;45.442;9.212;2022-11-14T15:35:44;14.68;67.35
70170;DHT22;57543;45.442;9.212;2022-11-14T15:39:25;14.66;67.20
70170;DHT22;57543;45.442;9.212;2022-11-14T15:42:48;14.56;67.55
70170;DHT22;57543;45.442;9.212;2022-11-14T15:53:47;14.35;69.47
70170;DHT22;57543;45.442;9.212;2022-11-14T15:57:14;14.29;70.03
70170;DHT22;57543;45.442;9.212;2022-11-14T16:00:43;14.29;70.20
70170;DHT22;57543;45.442;9.212;2022-11-14T16:04:14;14.34;73.07
70170;DHT22;57543;45.442;9.212;2022-11-14T16:07:37;14.32;71.09
70170;DHT22;57543;45.442;9.212;2022-11-14T16:10:59;14.28;70.57
70170;DHT22;57543;45.442;9.212;2022-11-14T16:14:22;14.25;70.25
70170;DHT22;57543;45.442;9.212;2022-11-14T16:17:46;14.17;70.15
70170;DHT22;57543;45.442;9.212;2022-11-14T16:21:13;14.07;70.06
70170;DHT22;57543;45.442;9.212;2022-11-14T16:24:37;14.03;70.26
70170;DHT22;57543;45.442;9.212;2022-11-14T16:27:59;13.84;70.87
70170;DHT22;57543;45.442;9.212;2022-11-14T16:31:22;13.80;71.13
70170;DHT22;57543;45.442;9.212;2022-11-14T16:34:44;13.83;71.04
70170;DHT22;57543;45.442;9.212;2022-11-14T16:38:08;13.81;71.09
70170;DHT22;57543;45.442;9.212;2022-11-14T16:41:33;13.77;71.22
70170;DHT22;57543;45.442;9.212;2022-11-14T16:44:59;13.79;71.12
70170;DHT22;57543;45.442;9.212;2022-11-14T16:48:25;13.74;71.52
70170;DHT22;57543;45.442;9.212;2022-11-14T16:51:49;13.70;71.54
70170;DHT22;57543;45.442;9.212;2022-11-14T16:55:12;13.58;72.13
70170;DHT22;57543;45.442;9.212;2022-11-14T16:58:34;13.52;72.51
70170;DHT22;57543;45.442;9.212;2022-11-14T17:01:56;13.56;72.51
70170;DHT22;57543;45.442;9.212;2022-11-14T17:05:19;13.51;72.71
70170;DHT22;57543;45.442;9.212;2022-11-14T17:08:41;13.46;72.81
70170;DHT22;57543;45.442;9.212;2022-11-14T17:12:04;13.49;72.64
70170;DHT22;57543;45.442;9.212;2022-11-14T17:15:26;13.45;72.83
70170;DHT22;57543;45.442;9.212;2022-11-14T17:18:54;13.39;73.08
70170;DHT22;57543;45.442;9.212;2022-11-14T17:22:17;13.36;73.32
70170;DHT22;57543;45.442;9.212;2022-11-14T17:25:40;13.35;73.40
70170;DHT22;57543;45.442;9.212;2022-11-14T17:29:03;13.35;73.34
70170;DHT22;57543;45.442;9.212;2022-11-14T17:32:25;13.36;73.38
70170;DHT22;57543;45.442;9.212;2022-11-14T17:35:48;13.39;73.20
70170;DHT22;57543;45.442;9.212;2022-11-14T17:39:10;13.42;73.10
70170;DHT22;57543;45.442;9.212;2022-11-14T17:42:33;13.39;73.15
70170;DHT22;57543;45.442;9.212;2022-11-14T17:45:55;13.39;73.15
70170;DHT22;57543;45.442;9.212;2022-11-14T17:49:18;13.36;73.25
70170;DHT22;57543;45.442;9.212;2022-11-14T17:52:40;13.39;73.19
70170;DHT22;57543;45.442;9.212;2022-11-14T17:56:03;13.35;73.26
70170;DHT22;57543;45.442;9.212;2022-11-14T17:59:25;13.35;73.36
70170;DHT22;57543;45.442;9.212;2022-11-14T18:02:47;13.34;73.38
70170;DHT22;57543;45.442;9.212;2022-11-14T18:06:15;13.28;73.51
70170;DHT22;57543;45.442;9.212;2022-11-14T18:09:37;13.15;74.02
70170;DHT22;57543;45.442;9.212;2022-11-14T18:12:59;13.14;74.12
70170;DHT22;57543;45.442;9.212;2022-11-14T18:16:25;13.17;73.99
70170;DHT22;57543;45.442;9.212;2022-11-14T18:19:47;13.19;73.94
70170;DHT22;57543;45.442;9.212;2022-11-14T18:23:09;13.22;73.47
70170;DHT22;57543;45.442;9.212;2022-11-14T18:26:31;13.10;73.89
70170;DHT22;57543;45.442;9.212;2022-11-14T18:29:53;13.12;74.08
70170;DHT22;57543;45.442;9.212;2022-11-14T18:33:16;13.11;74.03
70170;DHT22;57543;45.442;9.212;2022-11-14T18:36:38;13.10;73.87
70170;DHT22;57543;45.442;9.212;2022-11-14T18:40:00;13.00;74.20
70170;DHT22;57543;45.442;9.212;2022-11-14T18:43:22;12.96;74.45
70170;DHT22;57543;45.442;9.212;2022-11-14T18:46:45;12.89;74.60
70170;DHT22;57543;45.442;9.212;2022-11-14T18:50:07;12.83;74.76
70170;DHT22;57543;45.442;9.212;2022-11-14T18:53:34;12.76;75.10
70170;DHT22;57543;45.442;9.212;2022-11-14T18:56:56;12.76;74.96
70170;DHT22;57543;45.442;9.212;2022-11-14T19:00:18;12.67;74.85
70170;DHT22;57543;45.442;9.212;2022-11-14T19:03:41;12.56;75.16
70170;DHT22;57543;45.442;9.212;2022-11-14T19:07:03;12.48;75.59
70170;DHT22;57543;45.442;9.212;2022-11-14T19:10:26;12.45;75.80
70170;DHT22;57543;45.442;9.212;2022-11-14T19:13:48;12.44;75.88
70170;DHT22;57543;45.442;9.212;2022-11-14T19:17:10;12.38;75.93
70170;DHT22;57543;45.442;9.212;2022-11-14T19:20:33;12.39;75.79
70170;DHT22;57543;45.442;9.212;2022-11-14T19:23:55;12.29;75.97
70170;DHT22;57543;45.442;9.212;2022-11-14T19:27:18;12.31;76.24
70170;DHT22;57543;45.442;9.212;2022-11-14T19:30:43;12.27;76.25
70170;DHT22;57543;45.442;9.212;2022-11-14T19:34:05;12.22;76.44
70170;DHT22;57543;45.442;9.212;2022-11-14T19:37:28;12.22;76.60
70170;DHT22;57543;45.442;9.212;2022-11-14T19:40:50;12.29;76.50
70170;DHT22;57543;45.442;9.212;2022-11-14T19:44:12;12.38;76.25
70170;DHT22;57543;45.442;9.212;2022-11-14T19:47:34;12.44;76.06
70170;DHT22;57543;45.442;9.212;2022-11-14T19:51:09;12.38;76.18
70170;DHT22;57543;45.442;9.212;2022-11-14T19:54:32;12.44;76.31
70170;DHT22;57543;45.442;9.212;2022-11-14T19:57:54;12.53;76.03
70170;DHT22;57543;45.442;9.212;2022-11-14T20:01:18;12.44;76.21
70170;DHT22;57543;45.442;9.212;2022-11-14T20:04:41;12.32;76.42
70170;DHT22;57543;45.442;9.212;2022-11-14T20:08:05;12.28;76.67
70170;DHT22;57543;45.442;9.212;2022-11-14T20:11:28;12.32;76.65
70170;DHT22;57543;45.442;9.212;2022-11-14T20:14:51;12.35;76.56
70170;DHT22;57543;45.442;9.212;2022-11-14T20:18:14;12.34;76.71
70170;DHT22;57543;45.442;9.212;2022-11-14T20:21:36;12.41;76.53
70170;DHT22;57543;45.442;9.212;2022-11-14T20:24:59;12.38;76.45
70170;DHT22;57543;45.442;9.212;2022-11-14T20:28:23;12.29;76.72
70170;DHT22;57543;45.442;9.212;2022-11-14T20:31:46;12.28;76.92
70170;DHT22;57543;45.442;9.212;2022-11-14T20:35:08;12.32;76.66
70170;DHT22;57543;45.442;9.212;2022-11-14T20:38:31;12.25;76.69
70170;DHT22;57543;45.442;9.212;2022-11-14T20:41:53;12.11;77.11
70170;DHT22;57543;45.442;9.212;2022-11-14T20:45:15;12.11;77.29
70170;DHT22;57543;45.442;9.212;2022-11-14T20:48:38;12.04;77.45
70170;DHT22;57543;45.442;9.212;2022-11-14T20:52:00;11.98;77.85
70170;DHT22;57543;45.442;9.212;2022-11-14T20:55:25;11.97;77.81
70170;DHT22;57543;45.442;9.212;2022-11-14T20:58:49;11.91;78.33
70170;DHT22;57543;45.442;9.212;2022-11-14T21:02:14;11.86;78.26
70170;DHT22;57543;45.442;9.212;2022-11-14T21:05:37;11.87;78.14
70170;DHT22;57543;45.442;9.212;2022-11-14T21:09:00;11.80;78.22
70170;DHT22;57543;45.442;9.212;2022-11-14T21:12:23;11.79;78.29
70170;DHT22;57543;45.442;9.212;2022-11-14T21:15:45;11.79;78.17
70170;DHT22;57543;45.442;9.212;2022-11-14T21:19:07;11.84;77.97
70170;DHT22;57543;45.442;9.212;2022-11-14T21:22:29;11.79;77.82
70170;DHT22;57543;45.442;9.212;2022-11-14T21:25:51;11.69;78.20
70170;DHT22;57543;45.442;9.212;2022-11-14T21:29:13;11.72;78.23
70170;DHT22;57543;45.442;9.212;2022-11-14T21:32:35;11.66;78.14
70170;DHT22;57543;45.442;9.212;2022-11-14T21:35:58;11.67;78.11
70170;DHT22;57543;45.442;9.212;2022-11-14T21:39:21;11.67;77.99
70170;DHT22;57543;45.442;9.212;2022-11-14T21:42:44;11.74;77.90
70170;DHT22;57543;45.442;9.212;2022-11-14T21:46:07;11.76;77.89
70170;DHT22;57543;45.442;9.212;2022-11-14T21:49:30;11.79;77.65
70170;DHT22;57543;45.442;9.212;2022-11-14T21:52:53;11.93;77.22
70170;DHT22;57543;45.442;9.212;2022-11-14T21:59:40;11.98;76.92
70170;DHT22;57543;45.442;9.212;2022-11-14T22:03:02;12.00;76.76
70170;DHT22;57543;45.442;9.212;2022-11-14T22:06:43;12.04;76.62
70170;DHT22;57543;45.442;9.212;2022-11-14T22:10:06;11.91;76.42
70170;DHT22;57543;45.442;9.212;2022-11-14T22:13:29;11.82;77.19
70170;DHT22;57543;45.442;9.212;2022-11-14T22:16:52;11.70;77.32
70170;DHT22;57543;45.442;9.212;2022-11-14T22:20:14;11.69;77.43
70170;DHT22;57543;45.442;9.212;2022-11-14T22:23:36;11.70;77.52
70170;DHT22;57543;45.442;9.212;2022-11-14T22:26:59;11.73;77.47
70170;DHT22;57543;45.442;9.212;2022-11-14T22:30:21;11.79;77.26
70170;DHT22;57543;45.442;9.212;2022-11-14T22:33:45;11.76;77.10
70170;DHT22;57543;45.442;9.212;2022-11-14T22:37:08;11.83;76.95
70170;DHT22;57543;45.442;9.212;2022-11-14T22:40:31;11.77;76.82
70170;DHT22;57543;45.442;9.212;2022-11-14T22:43:54;11.69;76.77
70170;DHT22;57543;45.442;9.212;2022-11-14T22:47:17;11.72;76.85
70170;DHT22;57543;45.442;9.212;2022-11-14T22:50:39;11.72;76.89
70170;DHT22;57543;45.442;9.212;2022-11-14T22:54:01;11.73;76.55
70170;DHT22;57543;45.442;9.212;2022-11-14T22:57:23;11.65;76.77
70170;DHT22;57543;45.442;9.212;2022-11-14T23:00:46;11.58;76.96
70170;DHT22;57543;45.442;9.212;2022-11-14T23:04:09;11.59;76.79
70170;DHT22;57543;45.442;9.212;2022-11-14T23:07:31;11.61;76.78
70170;DHT22;57543;45.442;9.212;2022-11-14T23:10:53;11.61;76.63
70170;DHT22;57543;45.442;9.212;2022-11-14T23:14:15;11.54;76.65